createdAt,value
2023-04-03T00:00:13.715Z,92829.00
2023-04-03T00:01:13.810Z,92833.00
2023-04-03T00:02:13.963Z,92831.00
2023-04-03T00:03:13.965Z,92825.00
2023-04-03T00:04:14.066Z,92827.00
2023-04-03T00:05:14.095Z,92827.00
2023-04-03T00:06:14.178Z,92827.00
2023-04-03T00:07:14.244Z,92825.00
2023-04-03T00:08:15.209Z,92825.00
2023-04-03T00:09:14.400Z,92825.00
2023-04-03T00:10:14.468Z,92829.00
2023-04-03T00:11:14.543Z,92825.00
2023-04-03T00:12:14.620Z,92825.00
2023-04-03T00:13:14.721Z,92827.00
2023-04-03T00:14:14.782Z,92825.00
2023-04-03T00:15:14.846Z,92825.00
2023-04-03T00:16:14.961Z,92829.00
2023-04-03T00:17:14.991Z,92823.00
2023-04-03T00:18:15.051Z,92825.00
2023-04-03T00:19:15.140Z,92825.00
2023-04-03T00:20:15.220Z,92823.00
2023-04-03T00:21:15.308Z,92821.00
2023-04-03T00:22:15.477Z,92823.00
2023-04-03T00:23:15.492Z,92819.00
2023-04-03T00:24:15.602Z,92821.00
2023-04-03T00:25:15.707Z,92819.00
2023-04-03T00:26:15.820Z,92823.00
2023-04-03T00:27:15.953Z,92825.00
2023-04-03T00:28:16.102Z,92823.00
2023-04-03T00:29:16.249Z,92823.00
2023-04-03T00:30:16.392Z,92821.00
2023-04-03T00:31:16.565Z,92821.00
2023-04-03T00:32:16.685Z,92819.00
2023-04-03T00:33:16.849Z,92821.00
2023-04-03T00:34:17.007Z,92821.00
2023-04-03T00:35:17.166Z,92821.00
2023-04-03T00:36:17.390Z,92821.00
2023-04-03T00:37:17.477Z,92823.00
2023-04-03T00:38:17.616Z,92825.00
2023-04-03T00:39:17.778Z,92823.00
2023-04-03T00:40:17.929Z,92823.00
2023-04-03T00:41:18.110Z,92823.00
2023-04-03T00:42:18.245Z,92827.00
2023-04-03T00:43:18.380Z,92821.00
2023-04-03T00:44:18.534Z,92821.00
2023-04-03T00:45:18.674Z,92821.00
2023-04-03T00:46:18.903Z,92821.00
2023-04-03T00:47:18.946Z,92821.00
2023-04-03T00:48:19.078Z,92819.00
2023-04-03T00:49:19.246Z,92821.00
2023-04-03T00:50:19.393Z,92821.00
2023-04-03T00:51:19.549Z,92821.00
2023-04-03T00:52:19.699Z,92821.00
2023-04-03T00:53:19.866Z,92823.00
2023-04-03T00:54:19.984Z,92821.00
2023-04-03T00:55:20.108Z,92821.00
2023-04-03T00:56:20.233Z,92825.00
2023-04-03T00:57:20.380Z,92823.00
2023-04-03T00:58:20.468Z,92827.00
2023-04-03T00:59:20.635Z,92825.00
2023-04-03T01:00:20.784Z,92827.00
2023-04-03T01:01:21.021Z,92825.00
2023-04-03T01:02:21.074Z,92827.00
2023-04-03T01:03:21.223Z,92827.00
2023-04-03T01:04:21.400Z,92829.00
2023-04-03T01:05:21.534Z,92825.00
2023-04-03T01:06:21.681Z,92823.00
2023-04-03T01:07:21.897Z,92821.00
2023-04-03T01:08:22.007Z,92821.00
2023-04-03T01:09:22.180Z,92819.00
2023-04-03T01:10:22.329Z,92821.00
2023-04-03T01:11:22.494Z,92825.00
2023-04-03T01:12:22.641Z,92825.00
2023-04-03T01:13:22.786Z,92825.00
2023-04-03T01:14:22.951Z,92827.00
2023-04-03T01:15:23.096Z,92825.00
2023-04-03T01:16:23.299Z,92829.00
2023-04-03T01:17:23.394Z,92827.00
2023-04-03T01:18:23.542Z,92827.00
2023-04-03T01:19:23.671Z,92827.00
2023-04-03T01:20:23.836Z,92827.00
2023-04-03T01:21:23.994Z,92827.00
2023-04-03T01:22:24.152Z,92823.00
2023-04-03T01:23:24.305Z,92821.00
2023-04-03T01:24:24.471Z,92825.00
2023-04-03T01:25:24.616Z,92827.00
2023-04-03T01:26:24.766Z,92827.00
2023-04-03T01:27:24.932Z,92829.00
2023-04-03T01:28:25.069Z,92831.00
2023-04-03T01:29:25.237Z,92833.00
2023-04-03T01:30:25.410Z,92840.00
2023-04-03T01:31:25.557Z,92842.00
2023-04-03T01:32:25.686Z,92833.00
2023-04-03T01:33:25.764Z,92842.00
2023-04-03T01:34:25.892Z,92842.00
2023-04-03T01:35:26.010Z,92840.00
2023-04-03T01:36:26.161Z,92842.00
2023-04-03T01:37:26.257Z,92844.00
2023-04-03T01:38:26.381Z,92840.00
2023-04-03T01:39:26.518Z,92842.00
2023-04-03T01:40:26.621Z,92842.00
2023-04-03T01:41:26.809Z,92842.00
2023-04-03T01:42:26.937Z,92842.00
2023-04-03T01:43:27.086Z,92844.00
2023-04-03T01:44:27.242Z,92844.00
2023-04-03T01:45:27.481Z,92842.00
2023-04-03T01:46:27.624Z,92848.00
2023-04-03T01:47:27.799Z,92846.00
2023-04-03T01:48:27.929Z,92846.00
2023-04-03T01:49:28.065Z,92842.00
2023-04-03T01:50:28.203Z,92842.00
2023-04-03T01:51:28.338Z,92842.00
2023-04-03T01:52:28.485Z,92842.00
2023-04-03T01:53:28.636Z,92842.00
2023-04-03T01:54:28.803Z,92842.00
2023-04-03T01:55:28.964Z,92840.00
2023-04-03T01:56:29.114Z,92842.00
2023-04-03T01:57:29.297Z,92833.00
2023-04-03T01:58:29.405Z,92833.00
2023-04-03T01:59:29.572Z,92840.00
2023-04-03T02:00:29.718Z,92840.00
2023-04-03T02:01:29.872Z,92840.00
2023-04-03T02:02:30.035Z,92844.00
2023-04-03T02:03:30.169Z,92842.00
2023-04-03T02:04:30.403Z,92840.00
2023-04-03T02:05:30.485Z,92831.00
2023-04-03T02:06:30.616Z,92844.00
2023-04-03T02:07:30.771Z,92833.00
2023-04-03T02:08:30.893Z,92833.00
2023-04-03T02:09:31.107Z,92840.00
2023-04-03T02:10:31.160Z,92840.00
2023-04-03T02:11:31.257Z,92840.00
2023-04-03T02:12:31.383Z,92842.00
2023-04-03T02:13:31.508Z,92846.00
2023-04-03T02:14:31.640Z,92844.00
2023-04-03T02:15:31.758Z,92844.00
2023-04-03T02:16:31.982Z,92840.00
2023-04-03T02:17:32.010Z,92846.00
2023-04-03T02:18:32.070Z,92846.00
2023-04-03T02:19:32.200Z,92850.00
2023-04-03T02:20:32.320Z,92846.00
2023-04-03T02:21:32.460Z,92848.00
2023-04-03T02:22:32.616Z,92846.00
2023-04-03T02:23:32.759Z,92848.00
2023-04-03T02:24:32.898Z,92848.00
2023-04-03T02:25:33.032Z,92846.00
2023-04-03T02:26:33.163Z,92846.00
2023-04-03T02:27:33.298Z,92844.00
2023-04-03T02:28:33.413Z,92848.00
2023-04-03T02:29:33.545Z,92846.00
2023-04-03T02:30:33.729Z,92852.00
2023-04-03T02:31:33.941Z,92848.00
2023-04-03T02:32:34.054Z,92842.00
2023-04-03T02:33:34.166Z,92842.00
2023-04-03T02:34:34.319Z,92846.00
2023-04-03T02:35:34.471Z,92842.00
2023-04-03T02:36:34.617Z,92842.00
2023-04-03T02:37:34.778Z,92844.00
2023-04-03T02:38:34.928Z,92844.00
2023-04-03T02:39:35.074Z,92846.00
2023-04-03T02:40:35.422Z,92850.00
2023-04-03T02:41:35.371Z,92846.00
2023-04-03T02:42:35.511Z,92848.00
2023-04-03T02:43:35.649Z,92848.00
2023-04-03T02:44:35.797Z,92848.00
2023-04-03T02:45:35.959Z,92844.00
2023-04-03T02:46:36.128Z,92846.00
2023-04-03T02:47:36.324Z,92846.00
2023-04-03T02:48:36.408Z,92848.00
2023-04-03T02:49:36.572Z,92846.00
2023-04-03T02:50:36.892Z,92846.00
2023-04-03T02:51:36.847Z,92846.00
2023-04-03T02:52:37.000Z,92846.00
2023-04-03T02:53:37.149Z,92846.00
2023-04-03T02:54:37.287Z,92846.00
2023-04-03T02:55:37.423Z,92846.00
2023-04-03T02:56:37.564Z,92844.00
2023-04-03T02:57:37.708Z,92848.00
2023-04-03T02:58:37.839Z,92846.00
2023-04-03T02:59:37.994Z,92844.00
2023-04-03T03:00:38.530Z,92846.00
2023-04-03T03:01:38.302Z,92844.00
2023-04-03T03:02:38.438Z,92846.00
2023-04-03T03:03:38.569Z,92850.00
2023-04-03T03:04:38.725Z,92848.00
2023-04-03T03:05:38.853Z,92846.00
2023-04-03T03:06:39.017Z,92846.00
2023-04-03T03:07:39.153Z,92850.00
2023-04-03T03:08:39.313Z,92852.00
2023-04-03T03:09:39.473Z,92850.00
2023-04-03T03:10:39.813Z,92850.00
2023-04-03T03:11:39.777Z,92854.00
2023-04-03T03:12:39.913Z,92850.00
2023-04-03T03:13:40.064Z,92854.00
2023-04-03T03:14:40.217Z,92856.00
2023-04-03T03:15:40.404Z,92854.00
2023-04-03T03:16:40.532Z,92856.00
2023-04-03T03:17:40.718Z,92856.00
2023-04-03T03:18:40.800Z,92856.00
2023-04-03T03:19:40.953Z,92854.00
2023-04-03T03:20:41.060Z,92854.00
2023-04-03T03:21:41.152Z,92858.00
2023-04-03T03:22:41.285Z,92856.00
2023-04-03T03:23:41.409Z,92856.00
2023-04-03T03:24:41.519Z,92858.00
2023-04-03T03:25:41.655Z,92858.00
2023-04-03T03:26:41.772Z,92860.00
2023-04-03T03:27:41.887Z,92860.00
2023-04-03T03:28:42.013Z,92862.00
2023-04-03T03:29:42.132Z,92860.00
2023-04-03T03:30:42.253Z,92860.00
2023-04-03T03:31:42.457Z,92856.00
2023-04-03T03:32:42.603Z,92856.00
2023-04-03T03:33:42.712Z,92858.00
2023-04-03T03:34:42.860Z,92860.00
2023-04-03T03:35:43.012Z,92860.00
2023-04-03T03:36:43.108Z,92862.00
2023-04-03T03:37:43.277Z,92862.00
2023-04-03T03:38:43.377Z,92864.00
2023-04-03T03:39:43.478Z,92862.00
2023-04-03T03:40:43.617Z,92864.00
2023-04-03T03:41:43.705Z,92864.00
2023-04-03T03:42:43.896Z,92862.00
2023-04-03T03:43:44.086Z,92864.00
2023-04-03T03:44:44.210Z,92866.00
2023-04-03T03:45:44.302Z,92864.00
2023-04-03T03:46:44.447Z,92868.00
2023-04-03T03:47:44.580Z,92870.00
2023-04-03T03:48:44.650Z,92870.00
2023-04-03T03:49:44.765Z,92866.00
2023-04-03T03:50:44.877Z,92866.00
2023-04-03T03:51:44.979Z,92868.00
2023-04-03T03:52:45.118Z,92868.00
2023-04-03T03:53:45.221Z,92868.00
2023-04-03T03:54:45.411Z,92866.00
2023-04-03T03:55:45.536Z,92866.00
2023-04-03T03:56:45.657Z,92866.00
2023-04-03T03:57:45.796Z,92872.00
2023-04-03T03:58:45.945Z,92870.00
2023-04-03T03:59:46.172Z,92870.00
2023-04-03T04:00:46.370Z,92870.00
2023-04-03T04:01:46.501Z,92872.00
2023-04-03T04:02:46.681Z,92872.00
2023-04-03T04:03:46.858Z,92868.00
2023-04-03T04:04:46.859Z,92870.00
2023-04-03T04:05:46.981Z,92872.00
2023-04-03T04:06:47.153Z,92872.00
2023-04-03T04:07:47.279Z,92868.00
2023-04-03T04:08:47.415Z,92864.00
2023-04-03T04:09:47.543Z,92868.00
2023-04-03T04:10:47.685Z,92870.00
2023-04-03T04:11:47.834Z,92870.00
2023-04-03T04:12:47.952Z,92872.00
2023-04-03T04:13:48.065Z,92874.00
2023-04-03T04:14:48.183Z,92875.00
2023-04-03T04:15:48.298Z,92875.00
2023-04-03T04:16:48.504Z,92875.00
2023-04-03T04:17:48.575Z,92877.00
2023-04-03T04:18:48.654Z,92877.00
2023-04-03T04:19:48.769Z,92877.00
2023-04-03T04:20:48.890Z,92881.00
2023-04-03T04:21:49.005Z,92881.00
2023-04-03T04:22:49.131Z,92879.00
2023-04-03T04:23:49.231Z,92879.00
2023-04-03T04:24:49.337Z,92879.00
2023-04-03T04:25:49.511Z,92881.00
2023-04-03T04:26:49.620Z,92881.00
2023-04-03T04:27:49.759Z,92879.00
2023-04-03T04:28:49.893Z,92881.00
2023-04-03T04:29:49.996Z,92881.00
2023-04-03T04:30:50.160Z,92879.00
2023-04-03T04:31:50.286Z,92879.00
2023-04-03T04:32:50.432Z,92877.00
2023-04-03T04:33:50.524Z,92879.00
2023-04-03T04:34:50.699Z,92877.00
2023-04-03T04:35:50.883Z,92879.00
2023-04-03T04:36:51.049Z,92879.00
2023-04-03T04:37:51.109Z,92881.00
2023-04-03T04:38:51.224Z,92877.00
2023-04-03T04:39:51.394Z,92877.00
2023-04-03T04:40:51.583Z,92879.00
2023-04-03T04:41:51.762Z,92875.00
2023-04-03T04:42:51.882Z,92879.00
2023-04-03T04:43:51.993Z,92877.00
2023-04-03T04:44:52.096Z,92879.00
2023-04-03T04:45:52.237Z,92881.00
2023-04-03T04:46:52.334Z,92883.00
2023-04-03T04:47:52.569Z,92881.00
2023-04-03T04:48:52.615Z,92883.00
2023-04-03T04:49:52.770Z,92887.00
2023-04-03T04:50:52.921Z,92887.00
2023-04-03T04:51:53.063Z,92885.00
2023-04-03T04:52:53.205Z,92883.00
2023-04-03T04:53:55.512Z,92887.00
2023-04-03T04:54:53.447Z,92891.00
2023-04-03T04:55:53.556Z,92889.00
2023-04-03T04:56:53.671Z,92891.00
2023-04-03T04:57:53.749Z,92889.00
2023-04-03T04:58:53.849Z,92893.00
2023-04-03T04:59:53.939Z,92887.00
2023-04-03T05:00:54.040Z,92887.00
2023-04-03T05:01:54.281Z,92889.00
2023-04-03T05:02:54.303Z,92887.00
2023-04-03T05:03:54.336Z,92887.00
2023-04-03T05:04:54.460Z,92889.00
2023-04-03T05:05:54.535Z,92891.00
2023-04-03T05:06:54.627Z,92891.00
2023-04-03T05:07:54.728Z,92889.00
2023-04-03T05:08:54.827Z,92891.00
2023-04-03T05:09:54.940Z,92889.00
2023-04-03T05:10:56.242Z,92889.00
2023-04-03T05:11:55.133Z,92891.00
2023-04-03T05:12:55.244Z,92893.00
2023-04-03T05:13:55.340Z,92891.00
2023-04-03T05:14:55.440Z,92893.00
2023-04-03T05:15:55.571Z,92889.00
2023-04-03T05:16:55.637Z,92889.00
2023-04-03T05:17:55.773Z,92891.00
2023-04-03T05:18:55.864Z,92897.00
2023-04-03T05:19:56.020Z,92895.00
2023-04-03T05:20:56.102Z,92895.00
2023-04-03T05:21:56.208Z,92899.00
2023-04-03T05:22:56.323Z,92897.00
2023-04-03T05:23:56.455Z,92899.00
2023-04-03T05:24:56.560Z,92897.00
2023-04-03T05:25:56.676Z,92897.00
2023-04-03T05:26:56.787Z,92899.00
2023-04-03T05:27:56.903Z,92899.00
2023-04-03T05:28:57.012Z,92899.00
2023-04-03T05:29:57.150Z,92901.00
2023-04-03T05:30:57.239Z,92901.00
2023-04-03T05:31:57.375Z,92899.00
2023-04-03T05:32:57.505Z,92897.00
2023-04-03T05:33:57.550Z,92901.00
2023-04-03T05:34:59.452Z,92903.00
2023-04-03T05:35:57.801Z,92901.00
2023-04-03T05:36:57.961Z,92899.00
2023-04-03T05:37:57.990Z,92905.00
2023-04-03T05:38:58.092Z,92905.00
2023-04-03T05:39:58.197Z,92903.00
2023-04-03T05:40:58.322Z,92905.00
2023-04-03T05:41:58.421Z,92901.00
2023-04-03T05:42:58.533Z,92905.00
2023-04-03T05:43:58.666Z,92903.00
2023-04-03T05:44:58.765Z,92903.00
2023-04-03T05:45:58.898Z,92905.00
2023-04-03T05:46:59.775Z,92903.00
2023-04-03T05:47:59.150Z,92903.00
2023-04-03T05:48:59.194Z,92901.00
2023-04-03T05:49:59.305Z,92905.00
2023-04-03T05:50:59.410Z,92903.00
2023-04-03T05:51:59.524Z,92903.00
2023-04-03T05:52:59.609Z,92903.00
2023-04-03T05:53:59.718Z,92907.00
2023-04-03T05:54:59.824Z,92899.00
2023-04-03T05:55:59.951Z,92897.00
2023-04-03T05:57:00.109Z,92895.00
2023-04-03T05:58:00.173Z,92897.00
2023-04-03T05:59:00.296Z,92895.00
2023-04-03T06:00:00.410Z,92895.00
2023-04-03T06:01:00.532Z,92895.00
2023-04-03T06:02:00.653Z,92895.00
2023-04-03T06:03:01.023Z,92899.00
2023-04-03T06:04:01.032Z,92901.00
2023-04-03T06:05:01.010Z,92901.00
2023-04-03T06:06:01.100Z,92901.00
2023-04-03T06:07:01.196Z,92903.00
2023-04-03T06:08:01.331Z,92903.00
2023-04-03T06:09:03.637Z,92903.00
2023-04-03T06:10:01.553Z,92903.00
2023-04-03T06:11:01.669Z,92901.00
2023-04-03T06:12:01.780Z,92907.00
2023-04-03T06:13:01.872Z,92907.00
2023-04-03T06:14:02.024Z,92909.00
2023-04-03T06:15:02.146Z,92905.00
2023-04-03T06:16:02.279Z,92903.00
2023-04-03T06:17:02.418Z,92905.00
2023-04-03T06:18:02.604Z,92903.00
2023-04-03T06:19:02.686Z,92907.00
2023-04-03T06:20:02.861Z,92903.00
2023-04-03T06:21:03.029Z,92905.00
2023-04-03T06:22:03.199Z,92905.00
2023-04-03T06:23:03.308Z,92909.00
2023-04-03T06:24:03.445Z,92909.00
2023-04-03T06:25:03.575Z,92909.00
2023-04-03T06:26:03.691Z,92915.00
2023-04-03T06:27:03.806Z,92915.00
2023-04-03T06:28:03.950Z,92913.00
2023-04-03T06:29:04.090Z,92915.00
2023-04-03T06:30:04.198Z,92919.00
2023-04-03T06:31:04.406Z,92917.00
2023-04-03T06:32:04.443Z,92915.00
2023-04-03T06:33:04.624Z,92919.00
2023-04-03T06:34:05.022Z,92919.00
2023-04-03T06:35:04.872Z,92921.00
2023-04-03T06:36:05.094Z,92917.00
2023-04-03T06:37:05.134Z,92919.00
2023-04-03T06:38:05.285Z,92919.00
2023-04-03T06:39:05.455Z,92919.00
2023-04-03T06:40:05.604Z,92919.00
2023-04-03T06:41:05.769Z,92919.00
2023-04-03T06:42:05.884Z,92919.00
2023-04-03T06:43:06.016Z,92921.00
2023-04-03T06:44:06.116Z,92919.00
2023-04-03T06:45:06.232Z,92919.00
2023-04-03T06:46:06.399Z,92921.00
2023-04-03T06:47:06.650Z,92923.00
2023-04-03T06:48:06.758Z,92923.00
2023-04-03T06:49:06.814Z,92923.00
2023-04-03T06:50:06.933Z,92921.00
2023-04-03T06:51:07.054Z,92923.00
2023-04-03T06:52:07.197Z,92925.00
2023-04-03T06:53:07.345Z,92919.00
2023-04-03T06:54:07.492Z,92925.00
2023-04-03T06:55:07.654Z,92923.00
2023-04-03T06:56:07.777Z,92926.00
2023-04-03T06:57:07.936Z,92926.00
2023-04-03T06:58:08.029Z,92925.00
2023-04-03T06:59:08.141Z,92925.00
2023-04-03T07:00:08.288Z,92925.00
2023-04-03T07:01:08.360Z,92925.00
2023-04-03T07:02:08.618Z,92925.00
2023-04-03T07:03:08.714Z,92925.00
2023-04-03T07:04:08.752Z,92925.00
2023-04-03T07:05:08.840Z,92925.00
2023-04-03T07:06:08.981Z,92925.00
2023-04-03T07:07:09.108Z,92923.00
2023-04-03T07:08:09.253Z,92925.00
2023-04-03T07:09:09.292Z,92926.00
2023-04-03T07:10:09.406Z,92925.00
2023-04-03T07:11:09.600Z,92923.00
2023-04-03T07:12:09.793Z,92930.00
2023-04-03T07:13:09.908Z,92928.00
2023-04-03T07:14:10.028Z,92928.00
2023-04-03T07:15:10.784Z,92928.00
2023-04-03T07:16:10.298Z,92930.00
2023-04-03T07:17:10.363Z,92932.00
2023-04-03T07:18:10.481Z,92932.00
2023-04-03T07:19:10.586Z,92932.00
2023-04-03T07:20:10.776Z,92930.00
2023-04-03T07:21:10.902Z,92934.00
2023-04-03T07:22:11.054Z,92932.00
2023-04-03T07:23:11.124Z,92934.00
2023-04-03T07:24:13.218Z,92934.00
2023-04-03T07:25:11.336Z,92934.00
2023-04-03T07:26:11.435Z,92934.00
2023-04-03T07:27:11.559Z,92932.00
2023-04-03T07:28:11.654Z,92934.00
2023-04-03T07:29:11.758Z,92934.00
2023-04-03T07:30:11.867Z,92936.00
2023-04-03T07:31:12.047Z,92936.00
2023-04-03T07:32:12.101Z,92932.00
2023-04-03T07:33:12.234Z,92934.00
2023-04-03T07:34:12.337Z,92934.00
2023-04-03T07:35:12.434Z,92936.00
2023-04-03T07:36:12.568Z,92932.00
2023-04-03T07:37:12.656Z,92936.00
2023-04-03T07:38:12.767Z,92934.00
2023-04-03T07:39:12.863Z,92936.00
2023-04-03T07:40:12.967Z,92936.00
2023-04-03T07:41:13.062Z,92942.00
2023-04-03T07:42:13.152Z,92938.00
2023-04-03T07:43:13.254Z,92938.00
2023-04-03T07:44:13.393Z,92938.00
2023-04-03T07:45:13.471Z,92936.00
2023-04-03T07:46:13.635Z,92938.00
2023-04-03T07:47:13.774Z,92940.00
2023-04-03T07:48:13.937Z,92938.00
2023-04-03T07:49:14.066Z,92938.00
2023-04-03T07:50:14.182Z,92938.00
2023-04-03T07:51:14.305Z,92938.00
2023-04-03T07:52:14.495Z,92938.00
2023-04-03T07:53:14.679Z,92940.00
2023-04-03T07:54:14.829Z,92942.00
2023-04-03T07:55:14.995Z,92940.00
2023-04-03T07:56:15.126Z,92944.00
2023-04-03T07:57:15.323Z,92940.00
2023-04-03T07:58:15.456Z,92940.00
2023-04-03T07:59:15.602Z,92936.00
2023-04-03T08:00:15.729Z,92934.00
2023-04-03T08:01:15.901Z,92932.00
2023-04-03T08:02:16.072Z,92930.00
2023-04-03T08:03:16.323Z,92932.00
2023-04-03T08:04:16.431Z,92928.00
2023-04-03T08:05:16.516Z,92928.00
2023-04-03T08:06:18.540Z,92928.00
2023-04-03T08:07:16.755Z,92932.00
2023-04-03T08:08:17.687Z,92930.00
2023-04-03T08:09:16.989Z,92926.00
2023-04-03T08:10:17.099Z,92930.00
2023-04-03T08:11:17.218Z,92932.00
2023-04-03T08:12:17.310Z,92932.00
2023-04-03T08:13:17.445Z,92930.00
2023-04-03T08:14:17.930Z,92932.00
2023-04-03T08:15:17.651Z,92932.00
2023-04-03T08:16:17.865Z,92934.00
2023-04-03T08:17:17.872Z,92934.00
2023-04-03T08:18:17.980Z,92932.00
2023-04-03T08:19:25.408Z,92930.00
2023-04-03T08:20:19.204Z,92930.00
2023-04-03T08:21:18.303Z,92932.00
2023-04-03T08:22:18.402Z,92930.00
2023-04-03T08:23:20.102Z,92928.00
2023-04-03T08:24:18.600Z,92926.00
2023-04-03T08:25:18.708Z,92926.00
2023-04-03T08:26:18.772Z,92926.00
2023-04-03T08:27:18.862Z,92926.00
2023-04-03T08:28:18.959Z,92926.00
2023-04-03T08:29:19.051Z,92928.00
2023-04-03T08:30:19.107Z,92930.00
2023-04-03T08:31:19.229Z,92926.00
2023-04-03T08:32:19.280Z,92925.00
2023-04-03T08:33:19.383Z,92928.00
2023-04-03T08:34:19.502Z,92925.00
2023-04-03T08:35:19.648Z,92923.00
2023-04-03T08:36:19.836Z,92925.00
2023-04-03T08:37:19.974Z,92923.00
2023-04-03T08:38:20.097Z,92923.00
2023-04-03T08:39:20.241Z,92925.00
2023-04-03T08:40:20.400Z,92925.00
2023-04-03T08:41:20.554Z,92923.00
2023-04-03T08:42:20.721Z,92923.00
2023-04-03T08:43:20.869Z,92925.00
2023-04-03T08:44:20.978Z,92923.00
2023-04-03T08:45:21.166Z,92917.00
2023-04-03T08:46:21.289Z,92919.00
2023-04-03T08:47:21.352Z,92913.00
2023-04-03T08:48:21.500Z,92919.00
2023-04-03T08:49:21.665Z,92915.00
2023-04-03T08:50:21.826Z,92913.00
2023-04-03T08:51:21.962Z,92917.00
2023-04-03T08:52:22.057Z,92915.00
2023-04-03T08:53:22.206Z,92919.00
2023-04-03T08:54:22.367Z,92917.00
2023-04-03T08:55:22.513Z,92915.00
2023-04-03T08:56:22.673Z,92915.00
2023-04-03T08:57:22.902Z,92917.00
2023-04-03T08:58:22.938Z,92915.00
2023-04-03T08:59:23.060Z,92917.00
2023-04-03T09:00:23.211Z,92917.00
2023-04-03T09:01:23.482Z,92917.00
2023-04-03T09:02:23.569Z,92917.00
2023-04-03T09:03:23.769Z,92915.00
2023-04-03T09:04:23.922Z,92919.00
2023-04-03T09:05:24.187Z,92921.00
2023-04-03T09:06:24.091Z,92917.00
2023-04-03T09:07:24.223Z,92921.00
2023-04-03T09:08:24.358Z,92917.00
2023-04-03T09:09:24.500Z,92913.00
2023-04-03T09:10:24.634Z,92913.00
2023-04-03T09:11:24.756Z,92917.00
2023-04-03T09:12:24.905Z,92911.00
2023-04-03T09:13:25.028Z,92911.00
2023-04-03T09:14:25.175Z,92909.00
2023-04-03T09:15:37.752Z,92907.00
2023-04-03T09:16:26.579Z,92911.00
2023-04-03T09:17:25.561Z,92915.00
2023-04-03T09:18:25.703Z,92905.00
2023-04-03T09:19:25.857Z,92909.00
2023-04-03T09:20:25.993Z,92913.00
2023-04-03T09:21:26.130Z,92909.00
2023-04-03T09:22:26.212Z,92911.00
2023-04-03T09:23:26.341Z,92909.00
2023-04-03T09:24:26.458Z,92909.00
2023-04-03T09:25:26.619Z,92907.00
2023-04-03T09:26:26.767Z,92909.00
2023-04-03T09:27:26.939Z,92909.00
2023-04-03T09:28:27.827Z,92909.00
2023-04-03T09:29:27.153Z,92907.00
2023-04-03T09:30:27.253Z,92905.00
2023-04-03T09:31:27.388Z,92903.00
2023-04-03T09:32:27.618Z,92901.00
2023-04-03T09:33:27.705Z,92905.00
2023-04-03T09:34:27.869Z,92907.00
2023-04-03T09:35:36.407Z,92901.00
2023-04-03T09:36:29.157Z,92901.00
2023-04-03T09:37:28.213Z,92897.00
2023-04-03T09:38:28.293Z,92903.00
2023-04-03T09:39:28.403Z,92905.00
2023-04-03T09:40:28.473Z,92899.00
2023-04-03T09:41:28.562Z,92899.00
2023-04-03T09:42:28.648Z,92899.00
2023-04-03T09:43:28.729Z,92899.00
2023-04-03T09:44:28.809Z,92895.00
2023-04-03T09:45:28.867Z,92893.00
2023-04-03T09:46:28.971Z,92895.00
2023-04-03T09:47:29.226Z,92889.00
2023-04-03T09:48:29.303Z,92893.00
2023-04-03T09:49:29.381Z,92891.00
2023-04-03T09:50:29.507Z,92889.00
2023-04-03T09:51:29.648Z,92887.00
2023-04-03T09:52:29.790Z,92889.00
2023-04-03T09:53:29.925Z,92887.00
2023-04-03T09:54:30.054Z,92885.00
2023-04-03T09:55:30.230Z,92883.00
2023-04-03T09:56:30.311Z,92881.00
2023-04-03T09:57:30.522Z,92881.00
2023-04-03T09:58:39.441Z,92879.00
2023-04-03T09:59:31.709Z,92879.00
2023-04-03T10:00:30.775Z,92877.00
2023-04-03T10:01:30.986Z,92877.00
2023-04-03T10:02:30.999Z,92874.00
2023-04-03T10:03:32.212Z,92874.00
2023-04-03T10:04:31.126Z,92872.00
2023-04-03T10:05:31.147Z,92874.00
2023-04-03T10:06:31.239Z,92868.00
2023-04-03T10:07:31.330Z,92872.00
2023-04-03T10:08:31.389Z,92870.00
2023-04-03T10:09:31.488Z,92868.00
2023-04-03T10:10:31.569Z,92868.00
2023-04-03T10:11:31.697Z,92870.00
2023-04-03T10:12:31.779Z,92864.00
2023-04-03T10:13:34.054Z,92864.00
2023-04-03T10:14:31.945Z,92862.00
2023-04-03T10:15:32.033Z,92860.00
2023-04-03T10:16:32.217Z,92862.00
2023-04-03T10:17:32.307Z,92862.00
2023-04-03T10:18:32.566Z,92858.00
2023-04-03T10:19:32.573Z,92862.00
2023-04-03T10:20:32.743Z,92858.00
2023-04-03T10:21:32.871Z,92862.00
2023-04-03T10:22:33.008Z,92866.00
2023-04-03T10:23:33.147Z,92862.00
2023-04-03T10:24:33.309Z,92858.00
2023-04-03T10:25:33.424Z,92862.00
2023-04-03T10:26:33.528Z,92860.00
2023-04-03T10:27:33.605Z,92856.00
2023-04-03T10:28:33.682Z,92856.00
2023-04-03T10:29:33.746Z,92856.00
2023-04-03T10:30:33.880Z,92856.00
2023-04-03T10:31:33.955Z,92852.00
2023-04-03T10:32:34.054Z,92850.00
2023-04-03T10:33:34.104Z,92850.00
2023-04-03T10:34:34.270Z,92846.00
2023-04-03T10:35:34.315Z,92846.00
2023-04-03T10:36:34.404Z,92846.00
2023-04-03T10:37:34.485Z,92848.00
2023-04-03T10:38:34.646Z,92846.00
2023-04-03T10:39:34.714Z,92846.00
2023-04-03T10:40:34.895Z,92848.00
2023-04-03T10:41:34.952Z,92842.00
2023-04-03T10:42:35.080Z,92844.00
2023-04-03T10:43:35.197Z,92844.00
2023-04-03T10:44:35.328Z,92840.00
2023-04-03T10:45:35.459Z,92848.00
2023-04-03T10:46:35.659Z,92842.00
2023-04-03T10:47:38.015Z,92842.00
2023-04-03T10:48:35.801Z,92840.00
2023-04-03T10:49:35.953Z,92840.00
2023-04-03T10:50:36.322Z,92840.00
2023-04-03T10:51:36.038Z,92840.00
2023-04-03T10:52:36.211Z,92840.00
2023-04-03T10:53:36.219Z,92842.00
2023-04-03T10:54:36.303Z,92833.00
2023-04-03T10:55:36.400Z,92833.00
2023-04-03T10:56:36.496Z,92831.00
2023-04-03T10:57:36.633Z,92831.00
2023-04-03T10:58:36.667Z,92831.00
2023-04-03T10:59:36.741Z,92831.00
2023-04-03T11:00:36.996Z,92831.00
2023-04-03T11:01:36.989Z,92827.00
2023-04-03T11:02:37.067Z,92833.00
2023-04-03T11:03:37.115Z,92831.00
2023-04-03T11:04:37.168Z,92829.00
2023-04-03T11:05:37.494Z,92833.00
2023-04-03T11:06:37.338Z,92833.00
2023-04-03T11:07:37.422Z,92833.00
2023-04-03T11:08:37.552Z,92831.00
2023-04-03T11:09:37.602Z,92827.00
2023-04-03T11:10:37.679Z,92825.00
2023-04-03T11:11:37.759Z,92821.00
2023-04-03T11:12:37.825Z,92825.00
2023-04-03T11:13:37.910Z,92819.00
2023-04-03T11:14:38.003Z,92819.00
2023-04-03T11:15:38.302Z,92817.00
2023-04-03T11:16:47.263Z,92813.00
2023-04-03T11:17:39.271Z,92811.00
2023-04-03T11:18:38.340Z,92815.00
2023-04-03T11:19:38.437Z,92809.00
2023-04-03T11:20:38.549Z,92809.00
2023-04-03T11:21:38.720Z,92805.00
2023-04-03T11:22:38.747Z,92803.00
2023-04-03T11:23:48.840Z,92805.00
2023-04-03T11:24:39.944Z,92807.00
2023-04-03T11:25:39.321Z,92807.00
2023-04-03T11:26:39.095Z,92809.00
2023-04-03T11:27:39.190Z,92803.00
2023-04-03T11:28:39.281Z,92807.00
2023-04-03T11:29:39.367Z,92803.00
2023-04-03T11:30:39.540Z,92799.00
2023-04-03T11:31:39.595Z,92803.00
2023-04-03T11:32:39.654Z,92801.00
2023-04-03T11:33:39.734Z,92797.00
2023-04-03T11:34:39.868Z,92795.00
2023-04-03T11:35:40.322Z,92795.00
2023-04-03T11:36:40.198Z,92795.00
2023-04-03T11:37:40.396Z,92791.00
2023-04-03T11:38:40.433Z,92795.00
2023-04-03T11:39:40.543Z,92791.00
2023-04-03T11:40:40.692Z,92793.00
2023-04-03T11:41:40.945Z,92789.00
2023-04-03T11:42:40.988Z,92787.00
2023-04-03T11:43:41.009Z,92789.00
2023-04-03T11:44:41.143Z,92784.00
2023-04-03T11:45:41.642Z,92784.00